sensor_id;sensor_type;location;lat;lon;timestamp;P1;durP1;ratioP1;P2;durP2;ratioP2
10731;SDS011;5417;42.686;23.244;2023-07-02T00:05:34;5.77;;;5.23;;
10731;SDS011;5417;42.686;23.244;2023-07-02T00:08:45;7.50;;;5.33;;
10731;SDS011;5417;42.686;23.244;2023-07-02T00:11:07;6.70;;;6.00;;
10731;SDS011;5417;42.686;23.244;2023-07-02T00:34:10;5.90;;;5.30;;
10731;SDS011;5417;42.686;23.244;2023-07-02T00:51:36;6.70;;;5.87;;
10731;SDS011;5417;42.686;23.244;2023-07-02T01:42:16;7.73;;;6.17;;
10731;SDS011;5417;42.686;23.244;2023-07-02T01:45:17;7.70;;;6.77;;
10731;SDS011;5417;42.686;23.244;2023-07-02T01:54:04;8.23;;;7.33;;
10731;SDS011;5417;42.686;23.244;2023-07-02T02:11:51;8.40;;;7.40;;
10731;SDS011;5417;42.686;23.244;2023-07-02T02:15:25;9.27;;;7.80;;
10731;SDS011;5417;42.686;23.244;2023-07-02T02:17:50;8.77;;;7.90;;
10731;SDS011;5417;42.686;23.244;2023-07-02T02:26:52;9.10;;;7.80;;
10731;SDS011;5417;42.686;23.244;2023-07-02T02:54:54;10.73;;;9.57;;
10731;SDS011;5417;42.686;23.244;2023-07-02T02:57:21;12.70;;;10.80;;
10731;SDS011;5417;42.686;23.244;2023-07-02T03:03:18;9.17;;;8.30;;
10731;SDS011;5417;42.686;23.244;2023-07-02T03:06:08;9.93;;;8.83;;
10731;SDS011;5417;42.686;23.244;2023-07-02T03:19:08;9.13;;;8.23;;
10731;SDS011;5417;42.686;23.244;2023-07-02T03:21:36;9.87;;;8.90;;
10731;SDS011;5417;42.686;23.244;2023-07-02T03:31:06;11.83;;;7.40;;
10731;SDS011;5417;42.686;23.244;2023-07-02T03:37:01;8.37;;;7.57;;
10731;SDS011;5417;42.686;23.244;2023-07-02T03:39:32;9.37;;;6.77;;
10731;SDS011;5417;42.686;23.244;2023-07-02T03:41:59;9.83;;;7.73;;
10731;SDS011;5417;42.686;23.244;2023-07-02T03:45:29;9.17;;;7.20;;
10731;SDS011;5417;42.686;23.244;2023-07-02T03:55:11;9.43;;;7.50;;
10731;SDS011;5417;42.686;23.244;2023-07-02T03:58:04;9.37;;;8.37;;
10731;SDS011;5417;42.686;23.244;2023-07-02T04:15:59;7.80;;;6.60;;
10731;SDS011;5417;42.686;23.244;2023-07-02T04:29:11;7.93;;;7.13;;
10731;SDS011;5417;42.686;23.244;2023-07-02T04:41:03;9.40;;;7.60;;
10731;SDS011;5417;42.686;23.244;2023-07-02T04:44:00;10.13;;;7.87;;
10731;SDS011;5417;42.686;23.244;2023-07-02T04:50:25;8.33;;;7.50;;
10731;SDS011;5417;42.686;23.244;2023-07-02T04:56:10;11.17;;;7.70;;
10731;SDS011;5417;42.686;23.244;2023-07-02T04:58:37;10.33;;;8.10;;
10731;SDS011;5417;42.686;23.244;2023-07-02T05:01:04;9.67;;;8.07;;
10731;SDS011;5417;42.686;23.244;2023-07-02T05:04:50;9.10;;;7.70;;
10731;SDS011;5417;42.686;23.244;2023-07-02T05:06:45;8.70;;;7.83;;
10731;SDS011;5417;42.686;23.244;2023-07-02T05:09:12;8.70;;;7.80;;
10731;SDS011;5417;42.686;23.244;2023-07-02T05:18:00;8.23;;;7.30;;
10731;SDS011;5417;42.686;23.244;2023-07-02T05:20:30;10.47;;;9.23;;
10731;SDS011;5417;42.686;23.244;2023-07-02T05:22:57;8.97;;;7.93;;
10731;SDS011;5417;42.686;23.244;2023-07-02T05:29:19;13.07;;;9.70;;
10731;SDS011;5417;42.686;23.244;2023-07-02T05:32:49;13.03;;;9.97;;
10731;SDS011;5417;42.686;23.244;2023-07-02T05:41:30;10.47;;;9.37;;
10731;SDS011;5417;42.686;23.244;2023-07-02T05:43:45;10.80;;;9.50;;
10731;SDS011;5417;42.686;23.244;2023-07-02T05:46:12;9.80;;;8.80;;
10731;SDS011;5417;42.686;23.244;2023-07-02T05:52:43;10.60;;;8.67;;
10731;SDS011;5417;42.686;23.244;2023-07-02T05:54:57;10.50;;;8.70;;
10731;SDS011;5417;42.686;23.244;2023-07-02T05:57:45;10.20;;;8.77;;
10731;SDS011;5417;42.686;23.244;2023-07-02T06:00:35;10.93;;;8.37;;
10731;SDS011;5417;42.686;23.244;2023-07-02T06:03:37;16.67;;;9.87;;
10731;SDS011;5417;42.686;23.244;2023-07-02T06:06:24;9.27;;;8.27;;
10731;SDS011;5417;42.686;23.244;2023-07-02T06:09:15;12.57;;;8.23;;
10731;SDS011;5417;42.686;23.244;2023-07-02T06:14:47;9.13;;;8.23;;
10731;SDS011;5417;42.686;23.244;2023-07-02T06:17:14;10.03;;;8.87;;
10731;SDS011;5417;42.686;23.244;2023-07-02T06:19:41;11.27;;;8.23;;
10731;SDS011;5417;42.686;23.244;2023-07-02T06:22:08;14.10;;;8.20;;
10731;SDS011;5417;42.686;23.244;2023-07-02T06:30:55;9.50;;;8.60;;
10731;SDS011;5417;42.686;23.244;2023-07-02T06:33:22;9.77;;;8.77;;
10731;SDS011;5417;42.686;23.244;2023-07-02T06:35:51;10.57;;;8.77;;
10731;SDS011;5417;42.686;23.244;2023-07-02T06:41:45;10.40;;;8.57;;
10731;SDS011;5417;42.686;23.244;2023-07-02T06:44:42;11.43;;;7.50;;
10731;SDS011;5417;42.686;23.244;2023-07-02T06:50:06;9.00;;;7.70;;
10731;SDS011;5417;42.686;23.244;2023-07-02T06:53:04;9.73;;;7.87;;
10731;SDS011;5417;42.686;23.244;2023-07-02T06:55:25;8.73;;;7.20;;
10731;SDS011;5417;42.686;23.244;2023-07-02T06:58:30;8.10;;;7.37;;
10731;SDS011;5417;42.686;23.244;2023-07-02T07:01:09;8.23;;;7.43;;
10731;SDS011;5417;42.686;23.244;2023-07-02T07:03:36;9.03;;;7.00;;
10731;SDS011;5417;42.686;23.244;2023-07-02T07:08:54;7.97;;;7.13;;
10731;SDS011;5417;42.686;23.244;2023-07-02T07:11:20;15.60;;;10.37;;
10731;SDS011;5417;42.686;23.244;2023-07-02T07:13:48;19.07;;;11.53;;
10731;SDS011;5417;42.686;23.244;2023-07-02T07:16:14;13.40;;;9.37;;
10731;SDS011;5417;42.686;23.244;2023-07-02T07:18:46;9.13;;;7.77;;
10731;SDS011;5417;42.686;23.244;2023-07-02T07:25:04;9.23;;;7.47;;
10731;SDS011;5417;42.686;23.244;2023-07-02T07:27:30;8.90;;;7.30;;
10731;SDS011;5417;42.686;23.244;2023-07-02T07:36:50;10.10;;;8.97;;
10731;SDS011;5417;42.686;23.244;2023-07-02T07:39:18;10.60;;;9.17;;
10731;SDS011;5417;42.686;23.244;2023-07-02T07:42:49;10.33;;;8.83;;
10731;SDS011;5417;42.686;23.244;2023-07-02T07:50:34;9.10;;;8.20;;
10731;SDS011;5417;42.686;23.244;2023-07-02T07:56:13;9.30;;;7.70;;
10731;SDS011;5417;42.686;23.244;2023-07-02T08:22:50;8.25;;;6.80;;
10731;SDS011;5417;42.686;23.244;2023-07-02T08:28:34;7.57;;;6.88;;
10731;SDS011;5417;42.686;23.244;2023-07-02T08:34:22;7.20;;;6.53;;
10731;SDS011;5417;42.686;23.244;2023-07-02T08:37:52;7.03;;;6.38;;
10731;SDS011;5417;42.686;23.244;2023-07-02T08:49:09;7.50;;;6.25;;
10731;SDS011;5417;42.686;23.244;2023-07-02T08:51:44;7.97;;;6.70;;
10731;SDS011;5417;42.686;23.244;2023-07-02T08:54:11;6.88;;;6.28;;
10731;SDS011;5417;42.686;23.244;2023-07-02T09:00:34;7.80;;;5.95;;
10731;SDS011;5417;42.686;23.244;2023-07-02T09:06:13;6.95;;;6.25;;
10731;SDS011;5417;42.686;23.244;2023-07-02T09:08:44;6.85;;;6.28;;
10731;SDS011;5417;42.686;23.244;2023-07-02T09:11:25;7.38;;;6.75;;
10731;SDS011;5417;42.686;23.244;2023-07-02T09:13:52;5.30;;;4.95;;
10731;SDS011;5417;42.686;23.244;2023-07-02T09:16:26;5.95;;;5.45;;
10731;SDS011;5417;42.686;23.244;2023-07-02T09:19:01;4.67;;;4.37;;
10731;SDS011;5417;42.686;23.244;2023-07-02T09:21:42;5.87;;;5.37;;
10731;SDS011;5417;42.686;23.244;2023-07-02T09:24:16;7.73;;;5.80;;
10731;SDS011;5417;42.686;23.244;2023-07-02T09:26:44;7.13;;;6.27;;
10731;SDS011;5417;42.686;23.244;2023-07-02T09:29:17;4.13;;;3.80;;
10731;SDS011;5417;42.686;23.244;2023-07-02T09:31:45;3.87;;;3.57;;
10731;SDS011;5417;42.686;23.244;2023-07-02T09:34:14;3.70;;;3.40;;
10731;SDS011;5417;42.686;23.244;2023-07-02T09:36:41;3.93;;;3.50;;
10731;SDS011;5417;42.686;23.244;2023-07-02T09:39:11;3.40;;;3.20;;
10731;SDS011;5417;42.686;23.244;2023-07-02T09:41:39;3.60;;;3.30;;
10731;SDS011;5417;42.686;23.244;2023-07-02T09:44:07;3.75;;;3.45;;
10731;SDS011;5417;42.686;23.244;2023-07-02T09:46:35;3.28;;;3.08;;
10731;SDS011;5417;42.686;23.244;2023-07-02T09:49:07;3.10;;;2.90;;
10731;SDS011;5417;42.686;23.244;2023-07-02T09:51:44;3.08;;;2.88;;
10731;SDS011;5417;42.686;23.244;2023-07-02T09:54:11;3.97;;;3.67;;
10731;SDS011;5417;42.686;23.244;2023-07-02T09:56:39;3.65;;;3.35;;
10731;SDS011;5417;42.686;23.244;2023-07-02T09:59:06;4.03;;;3.72;;
10731;SDS011;5417;42.686;23.244;2023-07-02T10:01:33;4.60;;;4.30;;
10731;SDS011;5417;42.686;23.244;2023-07-02T10:04:11;3.78;;;3.53;;
10731;SDS011;5417;42.686;23.244;2023-07-02T10:06:46;3.05;;;2.85;;
10731;SDS011;5417;42.686;23.244;2023-07-02T10:09:34;3.22;;;3.03;;
10731;SDS011;5417;42.686;23.244;2023-07-02T10:15:39;4.03;;;3.63;;
10731;SDS011;5417;42.686;23.244;2023-07-02T10:21:21;4.78;;;4.40;;
10731;SDS011;5417;42.686;23.244;2023-07-02T10:26:59;4.53;;;4.22;;
10731;SDS011;5417;42.686;23.244;2023-07-02T10:36:32;5.03;;;4.35;;
10731;SDS011;5417;42.686;23.244;2023-07-02T10:38:27;5.20;;;4.80;;
10731;SDS011;5417;42.686;23.244;2023-07-02T10:43:37;4.57;;;4.18;;
10731;SDS011;5417;42.686;23.244;2023-07-02T10:46:04;4.70;;;4.40;;
10731;SDS011;5417;42.686;23.244;2023-07-02T10:48:31;4.80;;;4.43;;
10731;SDS011;5417;42.686;23.244;2023-07-02T10:50:58;4.60;;;4.18;;
10731;SDS011;5417;42.686;23.244;2023-07-02T10:53:25;5.53;;;4.97;;
10731;SDS011;5417;42.686;23.244;2023-07-02T10:55:55;5.10;;;4.70;;
10731;SDS011;5417;42.686;23.244;2023-07-02T10:58:23;4.88;;;4.47;;
10731;SDS011;5417;42.686;23.244;2023-07-02T11:00:50;5.22;;;4.72;;
10731;SDS011;5417;42.686;23.244;2023-07-02T11:03:19;5.65;;;5.15;;
10731;SDS011;5417;42.686;23.244;2023-07-02T11:05:46;5.97;;;5.47;;
10731;SDS011;5417;42.686;23.244;2023-07-02T11:08:16;5.22;;;4.82;;
10731;SDS011;5417;42.686;23.244;2023-07-02T11:10:44;5.65;;;5.18;;
10731;SDS011;5417;42.686;23.244;2023-07-02T11:13:14;5.15;;;4.75;;
10731;SDS011;5417;42.686;23.244;2023-07-02T11:16:17;5.15;;;4.70;;
10731;SDS011;5417;42.686;23.244;2023-07-02T11:18:47;5.00;;;4.60;;
10731;SDS011;5417;42.686;23.244;2023-07-02T11:21:14;6.13;;;5.10;;
10731;SDS011;5417;42.686;23.244;2023-07-02T11:23:41;5.50;;;5.00;;
10731;SDS011;5417;42.686;23.244;2023-07-02T11:26:08;6.13;;;4.97;;
10731;SDS011;5417;42.686;23.244;2023-07-02T11:28:35;5.30;;;4.90;;
10731;SDS011;5417;42.686;23.244;2023-07-02T11:31:02;5.50;;;4.70;;
10731;SDS011;5417;42.686;23.244;2023-07-02T11:33:35;5.10;;;4.70;;
10731;SDS011;5417;42.686;23.244;2023-07-02T11:36:03;5.00;;;4.60;;
10731;SDS011;5417;42.686;23.244;2023-07-02T11:38:31;4.83;;;4.43;;
10731;SDS011;5417;42.686;23.244;2023-07-02T11:41:01;4.67;;;4.00;;
10731;SDS011;5417;42.686;23.244;2023-07-02T11:43:53;3.90;;;3.60;;
10731;SDS011;5417;42.686;23.244;2023-07-02T11:46:22;4.47;;;4.07;;
10731;SDS011;5417;42.686;23.244;2023-07-02T11:48:53;3.70;;;3.40;;
10731;SDS011;5417;42.686;23.244;2023-07-02T11:51:21;3.90;;;3.53;;
10731;SDS011;5417;42.686;23.244;2023-07-02T11:56:41;4.37;;;3.27;;
10731;SDS011;5417;42.686;23.244;2023-07-02T12:00:11;3.67;;;3.43;;
10731;SDS011;5417;42.686;23.244;2023-07-02T12:05:43;4.17;;;3.77;;
10731;SDS011;5417;42.686;23.244;2023-07-02T12:11:06;4.53;;;4.13;;
10731;SDS011;5417;42.686;23.244;2023-07-02T12:28:35;6.13;;;5.47;;
10731;SDS011;5417;42.686;23.244;2023-07-02T12:31:10;6.13;;;5.67;;
10731;SDS011;5417;42.686;23.244;2023-07-02T12:33:39;9.43;;;7.63;;
10731;SDS011;5417;42.686;23.244;2023-07-02T12:36:06;6.00;;;5.50;;
10731;SDS011;5417;42.686;23.244;2023-07-02T12:38:32;6.30;;;5.80;;
10731;SDS011;5417;42.686;23.244;2023-07-02T12:40:59;5.10;;;4.70;;
10731;SDS011;5417;42.686;23.244;2023-07-02T12:44:05;5.87;;;5.47;;
10731;SDS011;5417;42.686;23.244;2023-07-02T12:46:20;6.43;;;5.90;;
10731;SDS011;5417;42.686;23.244;2023-07-02T12:49:28;6.30;;;5.70;;
10731;SDS011;5417;42.686;23.244;2023-07-02T12:51:50;6.17;;;5.57;;
10731;SDS011;5417;42.686;23.244;2023-07-02T12:54:38;6.27;;;5.77;;
10731;SDS011;5417;42.686;23.244;2023-07-02T12:57:33;6.70;;;6.20;;
10731;SDS011;5417;42.686;23.244;2023-07-02T13:02:57;6.03;;;5.53;;
10731;SDS011;5417;42.686;23.244;2023-07-02T13:05:30;5.10;;;4.67;;
10731;SDS011;5417;42.686;23.244;2023-07-02T13:08:07;5.47;;;4.90;;
10731;SDS011;5417;42.686;23.244;2023-07-02T13:10:38;5.50;;;5.13;;
10731;SDS011;5417;42.686;23.244;2023-07-02T13:16:43;5.37;;;4.93;;
10731;SDS011;5417;42.686;23.244;2023-07-02T13:21:49;6.10;;;5.50;;
10731;SDS011;5417;42.686;23.244;2023-07-02T13:22:51;6.87;;;6.00;;
10731;SDS011;5417;42.686;23.244;2023-07-02T13:25:16;6.23;;;5.63;;
10731;SDS011;5417;42.686;23.244;2023-07-02T13:28:08;5.93;;;5.53;;
10731;SDS011;5417;42.686;23.244;2023-07-02T13:36:53;6.57;;;5.87;;
10731;SDS011;5417;42.686;23.244;2023-07-02T13:39:20;6.27;;;5.77;;
10731;SDS011;5417;42.686;23.244;2023-07-02T13:42:11;6.73;;;6.13;;
10731;SDS011;5417;42.686;23.244;2023-07-02T13:44:53;6.60;;;6.00;;
10731;SDS011;5417;42.686;23.244;2023-07-02T13:47:55;6.63;;;6.03;;
10731;SDS011;5417;42.686;23.244;2023-07-02T13:50:55;6.10;;;5.50;;
10731;SDS011;5417;42.686;23.244;2023-07-02T13:53:24;6.60;;;5.90;;
10731;SDS011;5417;42.686;23.244;2023-07-02T13:55:58;7.23;;;6.53;;
10731;SDS011;5417;42.686;23.244;2023-07-02T13:58:26;7.20;;;6.60;;
10731;SDS011;5417;42.686;23.244;2023-07-02T14:01:08;12.00;;;7.07;;
10731;SDS011;5417;42.686;23.244;2023-07-02T14:03:37;7.80;;;6.70;;
10731;SDS011;5417;42.686;23.244;2023-07-02T14:06:06;7.47;;;6.77;;
10731;SDS011;5417;42.686;23.244;2023-07-02T14:08:34;8.47;;;7.50;;
10731;SDS011;5417;42.686;23.244;2023-07-02T14:11:07;8.20;;;7.30;;
10731;SDS011;5417;42.686;23.244;2023-07-02T14:13:49;8.83;;;7.50;;
10731;SDS011;5417;42.686;23.244;2023-07-02T14:19:35;9.07;;;8.17;;
10731;SDS011;5417;42.686;23.244;2023-07-02T14:22:25;8.23;;;7.43;;
10731;SDS011;5417;42.686;23.244;2023-07-02T14:24:52;8.00;;;7.23;;
10731;SDS011;5417;42.686;23.244;2023-07-02T14:27:24;8.60;;;7.77;;
10731;SDS011;5417;42.686;23.244;2023-07-02T14:30:21;7.90;;;7.10;;
10731;SDS011;5417;42.686;23.244;2023-07-02T14:33:12;8.37;;;7.23;;
10731;SDS011;5417;42.686;23.244;2023-07-02T14:35:39;8.07;;;7.27;;
10731;SDS011;5417;42.686;23.244;2023-07-02T14:38:11;9.20;;;7.67;;
10731;SDS011;5417;42.686;23.244;2023-07-02T14:40:40;8.60;;;7.37;;
10731;SDS011;5417;42.686;23.244;2023-07-02T14:43:21;9.60;;;7.90;;
10731;SDS011;5417;42.686;23.244;2023-07-02T14:48:28;9.47;;;8.67;;
10731;SDS011;5417;42.686;23.244;2023-07-02T14:51:18;10.43;;;9.43;;
10731;SDS011;5417;42.686;23.244;2023-07-02T14:53:51;8.97;;;7.83;;
10731;SDS011;5417;42.686;23.244;2023-07-02T14:56:25;8.57;;;7.87;;
10731;SDS011;5417;42.686;23.244;2023-07-02T14:59:22;8.63;;;7.87;;
10731;SDS011;5417;42.686;23.244;2023-07-02T15:01:49;9.20;;;8.23;;
10731;SDS011;5417;42.686;23.244;2023-07-02T15:07:15;10.07;;;8.53;;
10731;SDS011;5417;42.686;23.244;2023-07-02T15:09:50;7.77;;;7.03;;
10731;SDS011;5417;42.686;23.244;2023-07-02T15:12:23;7.80;;;7.10;;
10731;SDS011;5417;42.686;23.244;2023-07-02T15:14:50;8.00;;;7.30;;
10731;SDS011;5417;42.686;23.244;2023-07-02T15:20:12;7.93;;;7.13;;
10731;SDS011;5417;42.686;23.244;2023-07-02T15:22:44;7.60;;;7.00;;
10731;SDS011;5417;42.686;23.244;2023-07-02T15:25:11;8.13;;;7.43;;
10731;SDS011;5417;42.686;23.244;2023-07-02T15:27:38;14.37;;;7.80;;
10731;SDS011;5417;42.686;23.244;2023-07-02T15:30:07;6.93;;;6.33;;
10731;SDS011;5417;42.686;23.244;2023-07-02T15:32:35;8.30;;;7.50;;
10731;SDS011;5417;42.686;23.244;2023-07-02T15:35:02;9.97;;;8.23;;
10731;SDS011;5417;42.686;23.244;2023-07-02T15:37:38;9.17;;;8.37;;
10731;SDS011;5417;42.686;23.244;2023-07-02T15:40:28;8.30;;;7.63;;
10731;SDS011;5417;42.686;23.244;2023-07-02T15:42:55;8.60;;;7.80;;
10731;SDS011;5417;42.686;23.244;2023-07-02T15:45:24;8.20;;;7.40;;
10731;SDS011;5417;42.686;23.244;2023-07-02T15:47:51;8.77;;;7.90;;
10731;SDS011;5417;42.686;23.244;2023-07-02T15:50:20;7.97;;;7.27;;
10731;SDS011;5417;42.686;23.244;2023-07-02T15:52:54;8.77;;;7.83;;
10731;SDS011;5417;42.686;23.244;2023-07-02T15:55:21;8.23;;;7.53;;
10731;SDS011;5417;42.686;23.244;2023-07-02T15:57:53;8.40;;;7.60;;
10731;SDS011;5417;42.686;23.244;2023-07-02T16:00:21;8.20;;;7.27;;
10731;SDS011;5417;42.686;23.244;2023-07-02T16:02:53;10.40;;;8.97;;
10731;SDS011;5417;42.686;23.244;2023-07-02T16:08:10;7.80;;;7.13;;
10731;SDS011;5417;42.686;23.244;2023-07-02T16:10:39;8.30;;;7.40;;
10731;SDS011;5417;42.686;23.244;2023-07-02T16:13:13;8.10;;;7.40;;
10731;SDS011;5417;42.686;23.244;2023-07-02T16:15:45;8.27;;;7.47;;
10731;SDS011;5417;42.686;23.244;2023-07-02T16:18:18;8.83;;;7.33;;
10731;SDS011;5417;42.686;23.244;2023-07-02T16:21:07;9.10;;;8.30;;
10731;SDS011;5417;42.686;23.244;2023-07-02T16:23:36;7.63;;;6.70;;
10731;SDS011;5417;42.686;23.244;2023-07-02T16:26:04;9.03;;;8.10;;
10731;SDS011;5417;42.686;23.244;2023-07-02T16:28:46;8.40;;;7.60;;
10731;SDS011;5417;42.686;23.244;2023-07-02T16:31:15;9.03;;;8.20;;
10731;SDS011;5417;42.686;23.244;2023-07-02T16:33:49;10.00;;;9.00;;
10731;SDS011;5417;42.686;23.244;2023-07-02T16:36:16;8.23;;;7.43;;
10731;SDS011;5417;42.686;23.244;2023-07-02T16:38:45;8.53;;;7.77;;
10731;SDS011;5417;42.686;23.244;2023-07-02T16:41:11;7.00;;;6.30;;
10731;SDS011;5417;42.686;23.244;2023-07-02T16:43:38;7.63;;;7.03;;
10731;SDS011;5417;42.686;23.244;2023-07-02T16:46:07;7.97;;;7.17;;
10731;SDS011;5417;42.686;23.244;2023-07-02T16:48:39;8.57;;;7.93;;
10731;SDS011;5417;42.686;23.244;2023-07-02T16:51:17;9.53;;;7.83;;
10731;SDS011;5417;42.686;23.244;2023-07-02T16:53:45;8.13;;;7.33;;
10731;SDS011;5417;42.686;23.244;2023-07-02T16:56:17;7.37;;;6.70;;
10731;SDS011;5417;42.686;23.244;2023-07-02T16:58:58;7.23;;;6.50;;
10731;SDS011;5417;42.686;23.244;2023-07-02T17:01:51;8.60;;;7.40;;
10731;SDS011;5417;42.686;23.244;2023-07-02T17:04:26;7.87;;;7.27;;
10731;SDS011;5417;42.686;23.244;2023-07-02T17:12:43;7.50;;;6.80;;
10731;SDS011;5417;42.686;23.244;2023-07-02T17:15:24;7.67;;;6.97;;
10731;SDS011;5417;42.686;23.244;2023-07-02T17:18:24;7.57;;;6.87;;
10731;SDS011;5417;42.686;23.244;2023-07-02T17:21:29;8.17;;;7.37;;
10731;SDS011;5417;42.686;23.244;2023-07-02T17:24:11;7.63;;;6.97;;
10731;SDS011;5417;42.686;23.244;2023-07-02T17:29:24;8.23;;;7.53;;
10731;SDS011;5417;42.686;23.244;2023-07-02T17:32:30;8.10;;;7.20;;
10731;SDS011;5417;42.686;23.244;2023-07-02T17:34:57;8.40;;;7.67;;
10731;SDS011;5417;42.686;23.244;2023-07-02T17:37:28;8.83;;;8.03;;
10731;SDS011;5417;42.686;23.244;2023-07-02T17:39:55;7.50;;;6.90;;
10731;SDS011;5417;42.686;23.244;2023-07-02T17:42:25;7.63;;;6.93;;
10731;SDS011;5417;42.686;23.244;2023-07-02T17:44:52;7.43;;;6.83;;
10731;SDS011;5417;42.686;23.244;2023-07-02T17:47:24;8.80;;;7.90;;
10731;SDS011;5417;42.686;23.244;2023-07-02T17:49:51;7.60;;;6.90;;
10731;SDS011;5417;42.686;23.244;2023-07-02T17:52:19;7.07;;;6.47;;
10731;SDS011;5417;42.686;23.244;2023-07-02T17:54:54;8.20;;;7.40;;
10731;SDS011;5417;42.686;23.244;2023-07-02T17:57:52;8.00;;;7.30;;
10731;SDS011;5417;42.686;23.244;2023-07-02T18:02:58;8.73;;;8.03;;
10731;SDS011;5417;42.686;23.244;2023-07-02T18:05:26;17.47;;;14.57;;
10731;SDS011;5417;42.686;23.244;2023-07-02T18:07:55;10.23;;;9.33;;
10731;SDS011;5417;42.686;23.244;2023-07-02T18:13:24;7.77;;;6.70;;
10731;SDS011;5417;42.686;23.244;2023-07-02T18:15:51;6.93;;;6.40;;
10731;SDS011;5417;42.686;23.244;2023-07-02T18:18:23;7.63;;;7.03;;
10731;SDS011;5417;42.686;23.244;2023-07-02T18:22:03;8.63;;;7.73;;
10731;SDS011;5417;42.686;23.244;2023-07-02T18:23:57;8.27;;;7.57;;
10731;SDS011;5417;42.686;23.244;2023-07-02T18:26:32;8.90;;;7.97;;
10731;SDS011;5417;42.686;23.244;2023-07-02T18:29:03;7.83;;;7.13;;
10731;SDS011;5417;42.686;23.244;2023-07-02T18:32:01;7.87;;;7.17;;
10731;SDS011;5417;42.686;23.244;2023-07-02T18:34:40;8.67;;;7.87;;
10731;SDS011;5417;42.686;23.244;2023-07-02T18:37:10;9.50;;;8.60;;
10731;SDS011;5417;42.686;23.244;2023-07-02T18:39:41;7.87;;;7.23;;
10731;SDS011;5417;42.686;23.244;2023-07-02T18:42:10;10.13;;;9.23;;
10731;SDS011;5417;42.686;23.244;2023-07-02T18:44:39;8.27;;;7.67;;
10731;SDS011;5417;42.686;23.244;2023-07-02T18:47:07;8.03;;;7.33;;
10731;SDS011;5417;42.686;23.244;2023-07-02T18:49:36;8.43;;;7.73;;
10731;SDS011;5417;42.686;23.244;2023-07-02T18:52:04;8.60;;;7.73;;
10731;SDS011;5417;42.686;23.244;2023-07-02T18:54:34;9.00;;;8.20;;
10731;SDS011;5417;42.686;23.244;2023-07-02T18:57:04;8.47;;;7.77;;
10731;SDS011;5417;42.686;23.244;2023-07-02T18:59:33;8.73;;;8.13;;
10731;SDS011;5417;42.686;23.244;2023-07-02T19:02:02;8.50;;;7.80;;
10731;SDS011;5417;42.686;23.244;2023-07-02T19:04:31;9.03;;;8.20;;
10731;SDS011;5417;42.686;23.244;2023-07-02T19:06:58;10.03;;;8.40;;
10731;SDS011;5417;42.686;23.244;2023-07-02T19:09:29;9.20;;;8.37;;
10731;SDS011;5417;42.686;23.244;2023-07-02T19:12:01;10.67;;;9.50;;
10731;SDS011;5417;42.686;23.244;2023-07-02T19:14:29;9.77;;;8.83;;
10731;SDS011;5417;42.686;23.244;2023-07-02T19:19:47;9.10;;;8.30;;
10731;SDS011;5417;42.686;23.244;2023-07-02T19:22:14;10.20;;;9.20;;
10731;SDS011;5417;42.686;23.244;2023-07-02T19:24:43;9.53;;;8.70;;
10731;SDS011;5417;42.686;23.244;2023-07-02T19:27:10;10.03;;;8.83;;
10731;SDS011;5417;42.686;23.244;2023-07-02T19:29:47;10.13;;;9.17;;
10731;SDS011;5417;42.686;23.244;2023-07-02T19:32:24;11.60;;;9.50;;
10731;SDS011;5417;42.686;23.244;2023-07-02T19:35:10;11.53;;;9.33;;
10731;SDS011;5417;42.686;23.244;2023-07-02T19:37:38;10.13;;;9.23;;
10731;SDS011;5417;42.686;23.244;2023-07-02T19:40:07;11.13;;;10.03;;
10731;SDS011;5417;42.686;23.244;2023-07-02T19:42:35;10.93;;;10.03;;
10731;SDS011;5417;42.686;23.244;2023-07-02T19:45:02;10.20;;;9.37;;
10731;SDS011;5417;42.686;23.244;2023-07-02T19:48:17;9.90;;;8.93;;
10731;SDS011;5417;42.686;23.244;2023-07-02T19:50:52;9.63;;;8.83;;
10731;SDS011;5417;42.686;23.244;2023-07-02T19:53:38;10.00;;;9.03;;
10731;SDS011;5417;42.686;23.244;2023-07-02T19:56:19;11.20;;;10.10;;
10731;SDS011;5417;42.686;23.244;2023-07-02T19:58:53;10.50;;;9.57;;
10731;SDS011;5417;42.686;23.244;2023-07-02T20:01:20;9.80;;;9.00;;
10731;SDS011;5417;42.686;23.244;2023-07-02T20:03:51;10.87;;;10.00;;
10731;SDS011;5417;42.686;23.244;2023-07-02T20:06:20;10.70;;;9.67;;
10731;SDS011;5417;42.686;23.244;2023-07-02T20:08:47;10.93;;;9.83;;
10731;SDS011;5417;42.686;23.244;2023-07-02T20:12:17;10.33;;;9.53;;
10731;SDS011;5417;42.686;23.244;2023-07-02T20:16:55;9.67;;;8.87;;
10731;SDS011;5417;42.686;23.244;2023-07-02T20:19:22;9.90;;;9.00;;
10731;SDS011;5417;42.686;23.244;2023-07-02T20:21:50;10.37;;;9.30;;
10731;SDS011;5417;42.686;23.244;2023-07-02T20:24:20;10.50;;;9.60;;
10731;SDS011;5417;42.686;23.244;2023-07-02T20:26:48;10.40;;;9.50;;
10731;SDS011;5417;42.686;23.244;2023-07-02T20:29:25;11.10;;;9.27;;
10731;SDS011;5417;42.686;23.244;2023-07-02T20:31:52;10.63;;;9.73;;
10731;SDS011;5417;42.686;23.244;2023-07-02T20:34:24;10.33;;;9.40;;
10731;SDS011;5417;42.686;23.244;2023-07-02T20:37:12;10.97;;;9.97;;
10731;SDS011;5417;42.686;23.244;2023-07-02T20:39:41;11.00;;;9.93;;
10731;SDS011;5417;42.686;23.244;2023-07-02T20:42:08;10.63;;;9.73;;
10731;SDS011;5417;42.686;23.244;2023-07-02T20:44:43;10.73;;;9.83;;
10731;SDS011;5417;42.686;23.244;2023-07-02T20:47:22;11.80;;;10.73;;
10731;SDS011;5417;42.686;23.244;2023-07-02T20:49:49;10.57;;;9.73;;
10731;SDS011;5417;42.686;23.244;2023-07-02T20:52:18;13.27;;;11.87;;
10731;SDS011;5417;42.686;23.244;2023-07-02T20:55:41;10.40;;;9.57;;
10731;SDS011;5417;42.686;23.244;2023-07-02T20:57:53;10.50;;;9.60;;
10731;SDS011;5417;42.686;23.244;2023-07-02T21:03:55;13.53;;;12.23;;
10731;SDS011;5417;42.686;23.244;2023-07-02T21:12:36;11.30;;;10.40;;
10731;SDS011;5417;42.686;23.244;2023-07-02T21:24:50;11.00;;;10.10;;
10731;SDS011;5417;42.686;23.244;2023-07-02T21:36:54;11.53;;;10.43;;
10731;SDS011;5417;42.686;23.244;2023-07-02T21:42:25;11.87;;;10.70;;
10731;SDS011;5417;42.686;23.244;2023-07-02T21:44:53;11.23;;;10.23;;
10731;SDS011;5417;42.686;23.244;2023-07-02T21:47:20;10.83;;;9.83;;
10731;SDS011;5417;42.686;23.244;2023-07-02T21:56:24;12.53;;;11.27;;
10731;SDS011;5417;42.686;23.244;2023-07-02T22:05:31;12.60;;;11.50;;
10731;SDS011;5417;42.686;23.244;2023-07-02T22:08:00;12.80;;;11.63;;
10731;SDS011;5417;42.686;23.244;2023-07-02T22:10:28;13.40;;;12.07;;
10731;SDS011;5417;42.686;23.244;2023-07-02T22:13:42;14.07;;;12.83;;
10731;SDS011;5417;42.686;23.244;2023-07-02T22:22:24;14.93;;;13.53;;
10731;SDS011;5417;42.686;23.244;2023-07-02T22:24:51;14.33;;;12.93;;
10731;SDS011;5417;42.686;23.244;2023-07-02T22:27:19;13.70;;;12.53;;
10731;SDS011;5417;42.686;23.244;2023-07-02T22:36:41;15.27;;;13.70;;
10731;SDS011;5417;42.686;23.244;2023-07-02T22:42:13;15.77;;;14.43;;
10731;SDS011;5417;42.686;23.244;2023-07-02T22:44:39;16.53;;;14.97;;
10731;SDS011;5417;42.686;23.244;2023-07-02T22:51:13;17.00;;;14.77;;
10731;SDS011;5417;42.686;23.244;2023-07-02T22:54:28;16.23;;;14.80;;
10731;SDS011;5417;42.686;23.244;2023-07-02T22:56:41;16.67;;;15.20;;
10731;SDS011;5417;42.686;23.244;2023-07-02T22:59:09;16.93;;;15.43;;
10731;SDS011;5417;42.686;23.244;2023-07-02T23:01:38;16.73;;;15.33;;
10731;SDS011;5417;42.686;23.244;2023-07-02T23:04:15;17.13;;;15.53;;
10731;SDS011;5417;42.686;23.244;2023-07-02T23:07:19;16.87;;;15.37;;
10731;SDS011;5417;42.686;23.244;2023-07-02T23:09:41;17.07;;;15.57;;
10731;SDS011;5417;42.686;23.244;2023-07-02T23:12:09;16.57;;;15.17;;
10731;SDS011;5417;42.686;23.244;2023-07-02T23:14:38;17.77;;;16.17;;
10731;SDS011;5417;42.686;23.244;2023-07-02T23:17:06;18.97;;;17.17;;
10731;SDS011;5417;42.686;23.244;2023-07-02T23:19:35;18.10;;;16.43;;
10731;SDS011;5417;42.686;23.244;2023-07-02T23:22:33;17.43;;;15.93;;